sensor_id;sensor_type;location;lat;lon;timestamp;P1;durP1;ratioP1;P2;durP2;ratioP2
43184;SDS011;28803;52.308;19.096;2023-02-07T00:00:55;65.82;;;24.13;;
43184;SDS011;28803;52.308;19.096;2023-02-07T00:03:35;57.33;;;23.27;;
43184;SDS011;28803;52.308;19.096;2023-02-07T00:06:04;62.50;;;23.13;;
43184;SDS011;28803;52.308;19.096;2023-02-07T00:08:38;52.92;;;21.55;;
43184;SDS011;28803;52.308;19.096;2023-02-07T00:11:07;56.78;;;20.45;;
43184;SDS011;28803;52.308;19.096;2023-02-07T00:13:37;56.58;;;20.25;;
43184;SDS011;28803;52.308;19.096;2023-02-07T00:16:05;54.35;;;19.23;;
43184;SDS011;28803;52.308;19.096;2023-02-07T00:18:34;54.63;;;22.17;;
43184;SDS011;28803;52.308;19.096;2023-02-07T00:21:06;56.42;;;21.67;;
43184;SDS011;28803;52.308;19.096;2023-02-07T00:23:38;54.92;;;22.60;;
43184;SDS011;28803;52.308;19.096;2023-02-07T00:26:06;57.13;;;22.58;;
43184;SDS011;28803;52.308;19.096;2023-02-07T00:28:34;62.28;;;21.15;;
43184;SDS011;28803;52.308;19.096;2023-02-07T00:31:04;55.88;;;19.92;;
43184;SDS011;28803;52.308;19.096;2023-02-07T00:33:37;58.33;;;19.60;;
43184;SDS011;28803;52.308;19.096;2023-02-07T00:36:07;63.13;;;21.30;;
43184;SDS011;28803;52.308;19.096;2023-02-07T00:38:35;51.20;;;19.23;;
43184;SDS011;28803;52.308;19.096;2023-02-07T00:41:04;54.33;;;21.23;;
43184;SDS011;28803;52.308;19.096;2023-02-07T00:43:31;51.65;;;21.38;;
43184;SDS011;28803;52.308;19.096;2023-02-07T00:46:00;50.25;;;21.60;;
43184;SDS011;28803;52.308;19.096;2023-02-07T00:48:29;53.45;;;21.80;;
43184;SDS011;28803;52.308;19.096;2023-02-07T00:50:57;59.83;;;21.45;;
43184;SDS011;28803;52.308;19.096;2023-02-07T00:53:25;74.45;;;24.75;;
43184;SDS011;28803;52.308;19.096;2023-02-07T00:55:53;55.47;;;21.42;;
43184;SDS011;28803;52.308;19.096;2023-02-07T00:58:21;41.38;;;18.13;;
43184;SDS011;28803;52.308;19.096;2023-02-07T01:00:48;49.58;;;20.75;;
43184;SDS011;28803;52.308;19.096;2023-02-07T01:03:16;60.83;;;19.95;;
43184;SDS011;28803;52.308;19.096;2023-02-07T01:05:44;42.55;;;19.25;;
43184;SDS011;28803;52.308;19.096;2023-02-07T01:08:12;55.88;;;20.42;;
43184;SDS011;28803;52.308;19.096;2023-02-07T01:10:40;55.50;;;21.75;;
43184;SDS011;28803;52.308;19.096;2023-02-07T01:13:09;57.75;;;23.38;;
43184;SDS011;28803;52.308;19.096;2023-02-07T01:15:41;62.35;;;23.13;;
43184;SDS011;28803;52.308;19.096;2023-02-07T01:18:11;71.93;;;26.38;;
43184;SDS011;28803;52.308;19.096;2023-02-07T01:20:39;72.80;;;26.52;;
43184;SDS011;28803;52.308;19.096;2023-02-07T01:23:06;72.00;;;26.67;;
43184;SDS011;28803;52.308;19.096;2023-02-07T01:25:34;76.18;;;26.17;;
43184;SDS011;28803;52.308;19.096;2023-02-07T01:28:03;76.15;;;28.55;;
43184;SDS011;28803;52.308;19.096;2023-02-07T01:30:31;76.82;;;28.48;;
43184;SDS011;28803;52.308;19.096;2023-02-07T01:32:58;86.82;;;28.30;;
43184;SDS011;28803;52.308;19.096;2023-02-07T01:35:26;81.00;;;28.42;;
43184;SDS011;28803;52.308;19.096;2023-02-07T01:37:53;78.25;;;27.90;;
43184;SDS011;28803;52.308;19.096;2023-02-07T01:40:21;78.53;;;28.10;;
43184;SDS011;28803;52.308;19.096;2023-02-07T01:42:48;74.53;;;29.08;;
43184;SDS011;28803;52.308;19.096;2023-02-07T01:45:37;75.90;;;27.52;;
43184;SDS011;28803;52.308;19.096;2023-02-07T01:48:07;71.10;;;27.73;;
43184;SDS011;28803;52.308;19.096;2023-02-07T01:50:40;81.38;;;26.45;;
43184;SDS011;28803;52.308;19.096;2023-02-07T01:53:11;81.78;;;28.20;;
43184;SDS011;28803;52.308;19.096;2023-02-07T01:55:41;83.68;;;28.50;;
43184;SDS011;28803;52.308;19.096;2023-02-07T01:58:11;74.03;;;27.17;;
43184;SDS011;28803;52.308;19.096;2023-02-07T02:00:39;72.95;;;27.63;;
43184;SDS011;28803;52.308;19.096;2023-02-07T02:03:06;65.20;;;25.10;;
43184;SDS011;28803;52.308;19.096;2023-02-07T02:05:33;69.07;;;25.67;;
43184;SDS011;28803;52.308;19.096;2023-02-07T02:08:03;64.40;;;25.90;;
43184;SDS011;28803;52.308;19.096;2023-02-07T02:10:41;69.40;;;27.50;;
43184;SDS011;28803;52.308;19.096;2023-02-07T02:16:30;59.60;;;22.98;;
43184;SDS011;28803;52.308;19.096;2023-02-07T02:25:04;63.60;;;24.38;;
43184;SDS011;28803;52.308;19.096;2023-02-07T02:33:25;113.72;;;44.47;;
43184;SDS011;28803;52.308;19.096;2023-02-07T02:36:09;62.40;;;26.58;;
43184;SDS011;28803;52.308;19.096;2023-02-07T02:39:08;72.88;;;26.33;;
43184;SDS011;28803;52.308;19.096;2023-02-07T02:41:57;49.67;;;22.33;;
43184;SDS011;28803;52.308;19.096;2023-02-07T02:44:30;55.20;;;21.77;;
43184;SDS011;28803;52.308;19.096;2023-02-07T02:47:21;64.43;;;22.90;;
43184;SDS011;28803;52.308;19.096;2023-02-07T02:49:49;66.03;;;24.08;;
43184;SDS011;28803;52.308;19.096;2023-02-07T02:52:17;66.95;;;25.27;;
43184;SDS011;28803;52.308;19.096;2023-02-07T02:54:45;58.15;;;24.30;;
43184;SDS011;28803;52.308;19.096;2023-02-07T02:57:18;77.75;;;25.70;;
43184;SDS011;28803;52.308;19.096;2023-02-07T03:00:27;57.42;;;23.30;;
43184;SDS011;28803;52.308;19.096;2023-02-07T03:06:05;56.17;;;22.05;;
43184;SDS011;28803;52.308;19.096;2023-02-07T03:11:49;55.35;;;23.52;;
43184;SDS011;28803;52.308;19.096;2023-02-07T03:17:03;69.22;;;22.00;;
43184;SDS011;28803;52.308;19.096;2023-02-07T03:20:03;50.90;;;21.02;;
43184;SDS011;28803;52.308;19.096;2023-02-07T03:22:36;49.67;;;21.30;;
43184;SDS011;28803;52.308;19.096;2023-02-07T03:25:03;50.08;;;20.35;;
43184;SDS011;28803;52.308;19.096;2023-02-07T03:27:33;58.90;;;23.92;;
43184;SDS011;28803;52.308;19.096;2023-02-07T03:30:04;57.83;;;24.40;;
43184;SDS011;28803;52.308;19.096;2023-02-07T03:32:37;54.55;;;22.40;;
43184;SDS011;28803;52.308;19.096;2023-02-07T03:35:15;58.88;;;21.85;;
43184;SDS011;28803;52.308;19.096;2023-02-07T03:38:03;61.40;;;23.17;;
43184;SDS011;28803;52.308;19.096;2023-02-07T03:40:34;49.55;;;22.85;;
43184;SDS011;28803;52.308;19.096;2023-02-07T03:43:05;58.97;;;21.75;;
43184;SDS011;28803;52.308;19.096;2023-02-07T03:45:38;56.97;;;20.13;;
43184;SDS011;28803;52.308;19.096;2023-02-07T03:48:06;55.95;;;21.60;;
43184;SDS011;28803;52.308;19.096;2023-02-07T03:50:33;54.47;;;21.17;;
43184;SDS011;28803;52.308;19.096;2023-02-07T03:53:00;60.30;;;21.63;;
43184;SDS011;28803;52.308;19.096;2023-02-07T03:55:28;51.15;;;22.55;;
43184;SDS011;28803;52.308;19.096;2023-02-07T03:57:55;57.90;;;22.33;;
43184;SDS011;28803;52.308;19.096;2023-02-07T04:00:22;55.78;;;22.67;;
43184;SDS011;28803;52.308;19.096;2023-02-07T04:02:49;53.92;;;22.25;;
43184;SDS011;28803;52.308;19.096;2023-02-07T04:05:17;53.72;;;22.65;;
43184;SDS011;28803;52.308;19.096;2023-02-07T04:07:44;54.33;;;21.77;;
43184;SDS011;28803;52.308;19.096;2023-02-07T04:10:11;54.53;;;21.90;;
43184;SDS011;28803;52.308;19.096;2023-02-07T04:12:38;58.10;;;23.10;;
43184;SDS011;28803;52.308;19.096;2023-02-07T04:15:06;63.95;;;26.02;;
43184;SDS011;28803;52.308;19.096;2023-02-07T04:17:33;70.90;;;27.15;;
43184;SDS011;28803;52.308;19.096;2023-02-07T04:20:01;59.78;;;23.98;;
43184;SDS011;28803;52.308;19.096;2023-02-07T04:22:29;57.55;;;23.08;;
43184;SDS011;28803;52.308;19.096;2023-02-07T04:24:56;58.88;;;23.95;;
43184;SDS011;28803;52.308;19.096;2023-02-07T04:27:24;73.25;;;26.20;;
43184;SDS011;28803;52.308;19.096;2023-02-07T04:29:51;60.05;;;25.75;;
43184;SDS011;28803;52.308;19.096;2023-02-07T04:32:18;70.28;;;25.17;;
43184;SDS011;28803;52.308;19.096;2023-02-07T04:34:45;64.82;;;23.13;;
43184;SDS011;28803;52.308;19.096;2023-02-07T04:37:12;58.17;;;22.17;;
43184;SDS011;28803;52.308;19.096;2023-02-07T04:39:39;55.20;;;22.70;;
43184;SDS011;28803;52.308;19.096;2023-02-07T04:42:07;55.15;;;22.60;;
43184;SDS011;28803;52.308;19.096;2023-02-07T04:44:34;58.60;;;22.83;;
43184;SDS011;28803;52.308;19.096;2023-02-07T04:47:01;58.63;;;23.63;;
43184;SDS011;28803;52.308;19.096;2023-02-07T04:49:28;56.58;;;22.83;;
43184;SDS011;28803;52.308;19.096;2023-02-07T04:51:59;51.95;;;19.45;;
43184;SDS011;28803;52.308;19.096;2023-02-07T04:54:26;52.17;;;22.38;;
43184;SDS011;28803;52.308;19.096;2023-02-07T04:56:53;48.90;;;19.65;;
43184;SDS011;28803;52.308;19.096;2023-02-07T04:59:20;44.63;;;20.90;;
43184;SDS011;28803;52.308;19.096;2023-02-07T05:01:47;44.53;;;18.95;;
43184;SDS011;28803;52.308;19.096;2023-02-07T05:04:14;50.05;;;21.42;;
43184;SDS011;28803;52.308;19.096;2023-02-07T05:06:42;46.83;;;19.08;;
43184;SDS011;28803;52.308;19.096;2023-02-07T05:09:09;50.05;;;20.27;;
43184;SDS011;28803;52.308;19.096;2023-02-07T05:11:36;57.55;;;21.60;;
43184;SDS011;28803;52.308;19.096;2023-02-07T05:14:03;48.00;;;20.13;;
43184;SDS011;28803;52.308;19.096;2023-02-07T05:16:31;52.40;;;21.48;;
43184;SDS011;28803;52.308;19.096;2023-02-07T05:18:58;55.28;;;21.60;;
43184;SDS011;28803;52.308;19.096;2023-02-07T05:21:25;46.55;;;19.42;;
43184;SDS011;28803;52.308;19.096;2023-02-07T05:23:52;50.08;;;22.27;;
43184;SDS011;28803;52.308;19.096;2023-02-07T05:26:20;71.72;;;25.75;;
43184;SDS011;28803;52.308;19.096;2023-02-07T05:28:47;56.10;;;22.75;;
43184;SDS011;28803;52.308;19.096;2023-02-07T05:31:14;47.80;;;19.13;;
43184;SDS011;28803;52.308;19.096;2023-02-07T05:33:41;44.60;;;19.80;;
43184;SDS011;28803;52.308;19.096;2023-02-07T05:36:08;45.17;;;20.15;;
43184;SDS011;28803;52.308;19.096;2023-02-07T05:38:36;53.97;;;21.85;;
43184;SDS011;28803;52.308;19.096;2023-02-07T05:41:03;55.70;;;21.08;;
43184;SDS011;28803;52.308;19.096;2023-02-07T05:43:30;51.80;;;20.33;;
43184;SDS011;28803;52.308;19.096;2023-02-07T05:45:58;49.85;;;20.27;;
43184;SDS011;28803;52.308;19.096;2023-02-07T05:48:25;50.28;;;19.65;;
43184;SDS011;28803;52.308;19.096;2023-02-07T05:50:52;46.30;;;17.70;;
43184;SDS011;28803;52.308;19.096;2023-02-07T05:53:19;44.45;;;18.08;;
43184;SDS011;28803;52.308;19.096;2023-02-07T05:55:49;43.67;;;17.00;;
43184;SDS011;28803;52.308;19.096;2023-02-07T05:58:17;39.05;;;16.73;;
43184;SDS011;28803;52.308;19.096;2023-02-07T06:00:45;44.90;;;16.30;;
43184;SDS011;28803;52.308;19.096;2023-02-07T06:03:14;43.25;;;18.00;;
43184;SDS011;28803;52.308;19.096;2023-02-07T06:05:41;45.47;;;17.35;;
43184;SDS011;28803;52.308;19.096;2023-02-07T06:08:08;39.88;;;16.98;;
43184;SDS011;28803;52.308;19.096;2023-02-07T06:10:36;34.85;;;15.98;;
43184;SDS011;28803;52.308;19.096;2023-02-07T06:13:03;37.80;;;15.40;;
43184;SDS011;28803;52.308;19.096;2023-02-07T06:15:31;44.90;;;15.48;;
43184;SDS011;28803;52.308;19.096;2023-02-07T06:17:58;33.22;;;14.18;;
43184;SDS011;28803;52.308;19.096;2023-02-07T06:20:26;33.38;;;13.13;;
43184;SDS011;28803;52.308;19.096;2023-02-07T06:22:53;27.55;;;12.63;;
43184;SDS011;28803;52.308;19.096;2023-02-07T06:25:20;31.15;;;13.95;;
43184;SDS011;28803;52.308;19.096;2023-02-07T06:27:47;25.10;;;11.48;;
43184;SDS011;28803;52.308;19.096;2023-02-07T06:30:15;29.38;;;11.80;;
43184;SDS011;28803;52.308;19.096;2023-02-07T06:32:42;25.05;;;10.80;;
43184;SDS011;28803;52.308;19.096;2023-02-07T06:35:10;25.27;;;11.32;;
43184;SDS011;28803;52.308;19.096;2023-02-07T06:37:37;29.25;;;11.93;;
43184;SDS011;28803;52.308;19.096;2023-02-07T06:40:04;27.77;;;12.10;;
43184;SDS011;28803;52.308;19.096;2023-02-07T06:42:32;27.40;;;11.55;;
43184;SDS011;28803;52.308;19.096;2023-02-07T06:44:59;24.60;;;12.25;;
43184;SDS011;28803;52.308;19.096;2023-02-07T06:47:26;26.42;;;12.75;;
43184;SDS011;28803;52.308;19.096;2023-02-07T06:49:54;25.10;;;12.55;;
43184;SDS011;28803;52.308;19.096;2023-02-07T06:52:21;21.48;;;10.57;;
43184;SDS011;28803;52.308;19.096;2023-02-07T06:54:48;25.83;;;11.60;;
43184;SDS011;28803;52.308;19.096;2023-02-07T06:57:15;24.92;;;12.75;;
43184;SDS011;28803;52.308;19.096;2023-02-07T06:59:42;27.83;;;13.15;;
43184;SDS011;28803;52.308;19.096;2023-02-07T07:02:10;24.73;;;12.25;;
43184;SDS011;28803;52.308;19.096;2023-02-07T07:04:38;23.60;;;11.18;;
43184;SDS011;28803;52.308;19.096;2023-02-07T07:07:05;24.33;;;10.40;;
43184;SDS011;28803;52.308;19.096;2023-02-07T07:09:32;25.48;;;10.85;;
43184;SDS011;28803;52.308;19.096;2023-02-07T07:12:01;24.02;;;11.85;;
43184;SDS011;28803;52.308;19.096;2023-02-07T07:14:30;21.02;;;10.52;;
43184;SDS011;28803;52.308;19.096;2023-02-07T07:16:58;23.73;;;10.40;;
43184;SDS011;28803;52.308;19.096;2023-02-07T07:19:25;24.48;;;10.48;;
43184;SDS011;28803;52.308;19.096;2023-02-07T07:21:53;28.83;;;10.98;;
43184;SDS011;28803;52.308;19.096;2023-02-07T07:24:21;18.10;;;9.55;;
43184;SDS011;28803;52.308;19.096;2023-02-07T07:26:48;24.73;;;11.82;;
43184;SDS011;28803;52.308;19.096;2023-02-07T07:29:16;19.10;;;10.13;;
43184;SDS011;28803;52.308;19.096;2023-02-07T07:31:44;24.23;;;11.73;;
43184;SDS011;28803;52.308;19.096;2023-02-07T07:34:12;31.15;;;14.40;;
43184;SDS011;28803;52.308;19.096;2023-02-07T07:36:40;37.45;;;16.98;;
43184;SDS011;28803;52.308;19.096;2023-02-07T07:39:07;34.55;;;15.60;;
43184;SDS011;28803;52.308;19.096;2023-02-07T07:41:36;28.90;;;14.20;;
43184;SDS011;28803;52.308;19.096;2023-02-07T07:44:03;32.25;;;13.40;;
43184;SDS011;28803;52.308;19.096;2023-02-07T07:46:30;24.10;;;12.02;;
43184;SDS011;28803;52.308;19.096;2023-02-07T07:48:58;19.75;;;9.10;;
43184;SDS011;28803;52.308;19.096;2023-02-07T07:51:25;15.10;;;7.93;;
43184;SDS011;28803;52.308;19.096;2023-02-07T07:53:52;35.80;;;14.38;;
43184;SDS011;28803;52.308;19.096;2023-02-07T07:56:19;41.28;;;14.80;;
43184;SDS011;28803;52.308;19.096;2023-02-07T07:58:46;224.43;;;47.28;;
43184;SDS011;28803;52.308;19.096;2023-02-07T08:01:14;339.17;;;79.50;;
43184;SDS011;28803;52.308;19.096;2023-02-07T08:03:41;249.80;;;65.50;;
43184;SDS011;28803;52.308;19.096;2023-02-07T08:06:08;133.27;;;42.03;;
43184;SDS011;28803;52.308;19.096;2023-02-07T08:08:36;54.25;;;23.65;;
43184;SDS011;28803;52.308;19.096;2023-02-07T08:11:05;50.20;;;18.60;;
43184;SDS011;28803;52.308;19.096;2023-02-07T08:13:34;19.38;;;11.38;;
43184;SDS011;28803;52.308;19.096;2023-02-07T08:16:03;28.08;;;11.55;;
43184;SDS011;28803;52.308;19.096;2023-02-07T08:18:36;22.48;;;11.32;;
43184;SDS011;28803;52.308;19.096;2023-02-07T08:21:03;27.02;;;12.57;;
43184;SDS011;28803;52.308;19.096;2023-02-07T08:23:31;43.22;;;14.95;;
43184;SDS011;28803;52.308;19.096;2023-02-07T08:25:59;40.67;;;15.82;;
43184;SDS011;28803;52.308;19.096;2023-02-07T08:28:26;31.75;;;14.38;;
43184;SDS011;28803;52.308;19.096;2023-02-07T08:30:54;27.00;;;11.32;;
43184;SDS011;28803;52.308;19.096;2023-02-07T08:33:29;16.70;;;7.68;;
43184;SDS011;28803;52.308;19.096;2023-02-07T08:35:57;13.75;;;7.18;;
43184;SDS011;28803;52.308;19.096;2023-02-07T08:38:26;13.75;;;6.18;;
43184;SDS011;28803;52.308;19.096;2023-02-07T08:40:53;13.95;;;6.68;;
43184;SDS011;28803;52.308;19.096;2023-02-07T08:43:20;12.85;;;7.25;;
43184;SDS011;28803;52.308;19.096;2023-02-07T08:45:47;35.13;;;13.27;;
43184;SDS011;28803;52.308;19.096;2023-02-07T08:48:15;20.83;;;9.75;;
43184;SDS011;28803;52.308;19.096;2023-02-07T08:50:42;28.65;;;15.77;;
43184;SDS011;28803;52.308;19.096;2023-02-07T08:53:09;18.30;;;8.70;;
43184;SDS011;28803;52.308;19.096;2023-02-07T08:55:40;18.40;;;7.30;;
43184;SDS011;28803;52.308;19.096;2023-02-07T08:58:08;17.02;;;7.97;;
43184;SDS011;28803;52.308;19.096;2023-02-07T09:00:36;13.55;;;6.82;;
43184;SDS011;28803;52.308;19.096;2023-02-07T09:03:04;12.43;;;7.28;;
43184;SDS011;28803;52.308;19.096;2023-02-07T09:05:31;16.35;;;6.85;;
43184;SDS011;28803;52.308;19.096;2023-02-07T09:07:59;13.43;;;5.93;;
43184;SDS011;28803;52.308;19.096;2023-02-07T09:10:27;10.20;;;5.20;;
43184;SDS011;28803;52.308;19.096;2023-02-07T09:12:55;13.48;;;5.50;;
43184;SDS011;28803;52.308;19.096;2023-02-07T09:15:22;12.15;;;5.97;;
43184;SDS011;28803;52.308;19.096;2023-02-07T09:17:50;13.02;;;6.60;;
43184;SDS011;28803;52.308;19.096;2023-02-07T09:20:17;11.65;;;7.28;;
43184;SDS011;28803;52.308;19.096;2023-02-07T09:22:44;16.70;;;6.10;;
43184;SDS011;28803;52.308;19.096;2023-02-07T09:25:30;11.55;;;5.53;;
43184;SDS011;28803;52.308;19.096;2023-02-07T09:27:58;9.18;;;5.25;;
43184;SDS011;28803;52.308;19.096;2023-02-07T09:30:25;15.65;;;5.90;;
43184;SDS011;28803;52.308;19.096;2023-02-07T09:32:52;14.20;;;6.22;;
43184;SDS011;28803;52.308;19.096;2023-02-07T09:35:22;17.10;;;7.68;;
43184;SDS011;28803;52.308;19.096;2023-02-07T09:37:53;13.75;;;4.97;;
43184;SDS011;28803;52.308;19.096;2023-02-07T09:40:20;16.23;;;5.47;;
43184;SDS011;28803;52.308;19.096;2023-02-07T09:46:02;12.00;;;5.43;;
43184;SDS011;28803;52.308;19.096;2023-02-07T09:49:01;12.73;;;5.57;;
43184;SDS011;28803;52.308;19.096;2023-02-07T09:51:37;14.82;;;4.88;;
43184;SDS011;28803;52.308;19.096;2023-02-07T09:54:06;11.40;;;4.72;;
43184;SDS011;28803;52.308;19.096;2023-02-07T09:56:50;10.80;;;5.30;;
43184;SDS011;28803;52.308;19.096;2023-02-07T09:59:22;8.15;;;3.92;;
43184;SDS011;28803;52.308;19.096;2023-02-07T10:02:57;7.95;;;4.32;;
43184;SDS011;28803;52.308;19.096;2023-02-07T10:05:06;9.05;;;4.65;;
43184;SDS011;28803;52.308;19.096;2023-02-07T10:07:45;9.00;;;4.28;;
43184;SDS011;28803;52.308;19.096;2023-02-07T10:10:18;8.10;;;3.95;;
43184;SDS011;28803;52.308;19.096;2023-02-07T10:22:02;14.35;;;3.60;;
43184;SDS011;28803;52.308;19.096;2023-02-07T10:27:35;8.02;;;4.03;;
43184;SDS011;28803;52.308;19.096;2023-02-07T10:30:15;15.32;;;5.32;;
43184;SDS011;28803;52.308;19.096;2023-02-07T10:32:52;13.38;;;4.88;;
43184;SDS011;28803;52.308;19.096;2023-02-07T10:35:34;11.25;;;5.53;;
43184;SDS011;28803;52.308;19.096;2023-02-07T10:38:03;9.45;;;5.15;;
43184;SDS011;28803;52.308;19.096;2023-02-07T10:40:43;9.57;;;5.82;;
43184;SDS011;28803;52.308;19.096;2023-02-07T10:43:27;9.45;;;5.20;;
43184;SDS011;28803;52.308;19.096;2023-02-07T10:46:04;12.90;;;6.35;;
43184;SDS011;28803;52.308;19.096;2023-02-07T10:48:35;11.98;;;5.28;;
43184;SDS011;28803;52.308;19.096;2023-02-07T10:51:25;13.05;;;5.47;;
43184;SDS011;28803;52.308;19.096;2023-02-07T10:56:32;13.25;;;4.53;;
43184;SDS011;28803;52.308;19.096;2023-02-07T10:59:02;9.77;;;5.32;;
43184;SDS011;28803;52.308;19.096;2023-02-07T11:01:31;11.73;;;5.88;;
43184;SDS011;28803;52.308;19.096;2023-02-07T11:03:59;12.07;;;6.07;;
43184;SDS011;28803;52.308;19.096;2023-02-07T11:06:30;11.00;;;5.20;;
43184;SDS011;28803;52.308;19.096;2023-02-07T11:11:57;10.30;;;5.72;;
43184;SDS011;28803;52.308;19.096;2023-02-07T11:14:25;12.25;;;6.00;;
43184;SDS011;28803;52.308;19.096;2023-02-07T11:16:57;16.48;;;7.07;;
43184;SDS011;28803;52.308;19.096;2023-02-07T11:19:27;11.43;;;6.13;;
43184;SDS011;28803;52.308;19.096;2023-02-07T11:22:09;17.25;;;6.10;;
43184;SDS011;28803;52.308;19.096;2023-02-07T11:24:44;17.00;;;7.50;;
43184;SDS011;28803;52.308;19.096;2023-02-07T11:27:13;16.25;;;6.88;;
43184;SDS011;28803;52.308;19.096;2023-02-07T11:29:55;14.30;;;6.88;;
43184;SDS011;28803;52.308;19.096;2023-02-07T11:32:26;10.95;;;6.13;;
43184;SDS011;28803;52.308;19.096;2023-02-07T11:35:00;10.43;;;5.53;;
43184;SDS011;28803;52.308;19.096;2023-02-07T11:37:38;10.50;;;5.88;;
43184;SDS011;28803;52.308;19.096;2023-02-07T11:43:11;17.92;;;6.25;;
43184;SDS011;28803;52.308;19.096;2023-02-07T11:45:48;11.43;;;6.28;;
43184;SDS011;28803;52.308;19.096;2023-02-07T11:48:18;16.48;;;7.47;;
43184;SDS011;28803;52.308;19.096;2023-02-07T11:50:47;13.70;;;6.18;;
43184;SDS011;28803;52.308;19.096;2023-02-07T11:53:35;12.73;;;6.32;;
43184;SDS011;28803;52.308;19.096;2023-02-07T11:56:16;10.30;;;6.68;;
43184;SDS011;28803;52.308;19.096;2023-02-07T11:58:49;14.65;;;7.40;;
43184;SDS011;28803;52.308;19.096;2023-02-07T12:01:21;15.25;;;7.07;;
43184;SDS011;28803;52.308;19.096;2023-02-07T12:03:53;9.15;;;5.93;;
43184;SDS011;28803;52.308;19.096;2023-02-07T12:09:15;15.48;;;6.50;;
43184;SDS011;28803;52.308;19.096;2023-02-07T12:11:50;12.88;;;6.15;;
43184;SDS011;28803;52.308;19.096;2023-02-07T12:17:03;16.77;;;5.72;;
43184;SDS011;28803;52.308;19.096;2023-02-07T12:19:37;12.40;;;5.38;;
43184;SDS011;28803;52.308;19.096;2023-02-07T12:22:46;11.20;;;5.68;;
43184;SDS011;28803;52.308;19.096;2023-02-07T12:25:18;15.15;;;6.25;;
43184;SDS011;28803;52.308;19.096;2023-02-07T12:27:49;15.52;;;6.32;;
43184;SDS011;28803;52.308;19.096;2023-02-07T12:44:37;10.38;;;5.30;;
43184;SDS011;28803;52.308;19.096;2023-02-07T12:47:19;15.10;;;6.13;;
43184;SDS011;28803;52.308;19.096;2023-02-07T12:50:15;19.88;;;7.82;;
43184;SDS011;28803;52.308;19.096;2023-02-07T12:58:32;10.83;;;4.40;;
43184;SDS011;28803;52.308;19.096;2023-02-07T13:12:29;13.18;;;4.82;;
43184;SDS011;28803;52.308;19.096;2023-02-07T13:15:30;15.02;;;5.47;;
43184;SDS011;28803;52.308;19.096;2023-02-07T13:18:08;12.85;;;5.32;;
43184;SDS011;28803;52.308;19.096;2023-02-07T13:23:15;7.20;;;3.47;;
43184;SDS011;28803;52.308;19.096;2023-02-07T13:25:47;12.43;;;4.53;;
43184;SDS011;28803;52.308;19.096;2023-02-07T13:28:26;17.23;;;4.63;;
43184;SDS011;28803;52.308;19.096;2023-02-07T13:33:43;9.32;;;4.28;;
43184;SDS011;28803;52.308;19.096;2023-02-07T13:57:45;12.50;;;4.90;;
43184;SDS011;28803;52.308;19.096;2023-02-07T14:00:36;16.33;;;6.47;;
43184;SDS011;28803;52.308;19.096;2023-02-07T14:03:33;10.63;;;4.75;;
43184;SDS011;28803;52.308;19.096;2023-02-07T14:06:13;11.60;;;5.30;;
43184;SDS011;28803;52.308;19.096;2023-02-07T14:08:45;15.63;;;4.97;;
43184;SDS011;28803;52.308;19.096;2023-02-07T14:11:45;10.25;;;4.57;;
43184;SDS011;28803;52.308;19.096;2023-02-07T14:16:59;20.17;;;6.22;;
43184;SDS011;28803;52.308;19.096;2023-02-07T14:35:05;47.30;;;16.13;;
43184;SDS011;28803;52.308;19.096;2023-02-07T14:37:49;20.13;;;8.65;;
43184;SDS011;28803;52.308;19.096;2023-02-07T14:51:12;19.73;;;8.55;;
43184;SDS011;28803;52.308;19.096;2023-02-07T14:53:54;15.55;;;8.18;;
43184;SDS011;28803;52.308;19.096;2023-02-07T15:04:52;25.88;;;9.25;;
43184;SDS011;28803;52.308;19.096;2023-02-07T15:07:19;29.80;;;10.90;;
43184;SDS011;28803;52.308;19.096;2023-02-07T15:09:46;20.83;;;9.60;;
43184;SDS011;28803;52.308;19.096;2023-02-07T15:12:22;22.52;;;8.73;;
43184;SDS011;28803;52.308;19.096;2023-02-07T15:14:53;18.20;;;7.90;;
43184;SDS011;28803;52.308;19.096;2023-02-07T15:17:22;18.95;;;8.98;;
43184;SDS011;28803;52.308;19.096;2023-02-07T15:20:04;28.63;;;10.10;;
43184;SDS011;28803;52.308;19.096;2023-02-07T15:22:32;30.08;;;9.75;;
43184;SDS011;28803;52.308;19.096;2023-02-07T15:25:00;31.10;;;11.75;;
43184;SDS011;28803;52.308;19.096;2023-02-07T15:27:27;21.50;;;9.60;;
43184;SDS011;28803;52.308;19.096;2023-02-07T15:30:00;30.65;;;10.32;;
43184;SDS011;28803;52.308;19.096;2023-02-07T15:32:30;22.55;;;8.55;;
43184;SDS011;28803;52.308;19.096;2023-02-07T15:35:16;22.30;;;9.25;;
43184;SDS011;28803;52.308;19.096;2023-02-07T15:37:44;36.13;;;11.23;;
43184;SDS011;28803;52.308;19.096;2023-02-07T15:40:14;31.88;;;11.23;;
43184;SDS011;28803;52.308;19.096;2023-02-07T15:42:57;25.92;;;10.82;;
43184;SDS011;28803;52.308;19.096;2023-02-07T15:45:26;15.45;;;7.20;;
43184;SDS011;28803;52.308;19.096;2023-02-07T15:47:59;16.83;;;7.55;;
43184;SDS011;28803;52.308;19.096;2023-02-07T15:50:34;21.77;;;8.45;;
43184;SDS011;28803;52.308;19.096;2023-02-07T15:53:03;23.17;;;9.68;;
43184;SDS011;28803;52.308;19.096;2023-02-07T15:55:35;37.90;;;10.98;;
43184;SDS011;28803;52.308;19.096;2023-02-07T15:58:15;48.80;;;14.52;;
43184;SDS011;28803;52.308;19.096;2023-02-07T16:00:46;44.17;;;15.05;;
43184;SDS011;28803;52.308;19.096;2023-02-07T16:03:19;35.78;;;14.07;;
43184;SDS011;28803;52.308;19.096;2023-02-07T16:05:56;43.63;;;13.55;;
43184;SDS011;28803;52.308;19.096;2023-02-07T16:08:36;21.92;;;8.23;;
43184;SDS011;28803;52.308;19.096;2023-02-07T16:13:52;23.20;;;9.60;;
43184;SDS011;28803;52.308;19.096;2023-02-07T16:16:24;22.38;;;10.20;;
43184;SDS011;28803;52.308;19.096;2023-02-07T16:21:48;31.65;;;11.25;;
43184;SDS011;28803;52.308;19.096;2023-02-07T16:24:19;26.13;;;10.93;;
43184;SDS011;28803;52.308;19.096;2023-02-07T16:26:48;35.78;;;10.57;;
43184;SDS011;28803;52.308;19.096;2023-02-07T16:29:18;29.90;;;10.55;;
43184;SDS011;28803;52.308;19.096;2023-02-07T16:31:47;27.85;;;9.75;;
43184;SDS011;28803;52.308;19.096;2023-02-07T16:34:15;36.72;;;12.50;;
43184;SDS011;28803;52.308;19.096;2023-02-07T16:36:46;39.88;;;13.73;;
43184;SDS011;28803;52.308;19.096;2023-02-07T16:39:16;40.08;;;13.05;;
43184;SDS011;28803;52.308;19.096;2023-02-07T16:41:45;25.63;;;11.13;;
43184;SDS011;28803;52.308;19.096;2023-02-07T16:44:18;22.80;;;9.15;;
43184;SDS011;28803;52.308;19.096;2023-02-07T16:46:48;25.50;;;10.23;;
43184;SDS011;28803;52.308;19.096;2023-02-07T16:49:17;30.67;;;11.00;;
43184;SDS011;28803;52.308;19.096;2023-02-07T16:51:47;25.40;;;9.48;;
43184;SDS011;28803;52.308;19.096;2023-02-07T16:54:14;34.97;;;13.73;;
43184;SDS011;28803;52.308;19.096;2023-02-07T16:56:42;60.22;;;18.60;;
43184;SDS011;28803;52.308;19.096;2023-02-07T16:59:13;56.75;;;20.45;;
43184;SDS011;28803;52.308;19.096;2023-02-07T17:01:44;75.55;;;20.52;;
43184;SDS011;28803;52.308;19.096;2023-02-07T17:04:11;55.83;;;19.00;;
43184;SDS011;28803;52.308;19.096;2023-02-07T17:06:39;44.03;;;16.67;;
43184;SDS011;28803;52.308;19.096;2023-02-07T17:09:14;44.20;;;15.43;;
43184;SDS011;28803;52.308;19.096;2023-02-07T17:11:44;31.17;;;13.65;;